createdAt,value
2018-02-27T00:00:15.949Z,101841.79
2018-02-27T00:02:45.092Z,101844.13
2018-02-27T00:05:14.208Z,101836.87
2018-02-27T00:07:42.589Z,101834.80
2018-02-27T00:10:10.930Z,101833.98
2018-02-27T00:12:39.296Z,101829.13
2018-02-27T00:15:07.628Z,101828.36
2018-02-27T00:17:36.026Z,101834.30
2018-02-27T00:20:05.157Z,101834.61
2018-02-27T00:22:33.490Z,101840.02
2018-02-27T00:25:01.877Z,101839.78
2018-02-27T00:27:30.972Z,101835.39
2018-02-27T00:30:00.104Z,101836.67
2018-02-27T00:32:29.216Z,101834.02
2018-02-27T00:34:57.583Z,101838.16
2018-02-27T00:37:25.978Z,101838.59
2018-02-27T00:39:54.727Z,101835.53
2018-02-27T00:42:23.096Z,101833.53
2018-02-27T00:44:52.204Z,101830.95
2018-02-27T00:47:20.585Z,101830.52
2018-02-27T00:49:48.950Z,101808.33
2018-02-27T00:52:17.337Z,101829.79
2018-02-27T00:54:45.688Z,101827.19
2018-02-27T00:57:14.833Z,101823.91
2018-02-27T00:59:43.193Z,101822.91
2018-02-27T01:02:11.569Z,101814.67
2018-02-27T01:04:39.933Z,101815.52
2018-02-27T01:07:09.087Z,101813.65
2018-02-27T01:09:37.412Z,101810.72
2018-02-27T01:12:05.771Z,101813.13
2018-02-27T01:14:34.923Z,101810.72
2018-02-27T01:17:03.651Z,101814.54
2018-02-27T01:19:32.796Z,101804.73
2018-02-27T01:22:02.293Z,101811.45
2018-02-27T01:24:30.669Z,101796.74
2018-02-27T01:26:59.021Z,101795.85
2018-02-27T01:29:28.155Z,101797.81
2018-02-27T01:31:56.509Z,101799.94
2018-02-27T01:34:25.320Z,101794.34
2018-02-27T01:36:53.721Z,101796.22
2018-02-27T01:39:22.051Z,101795.09
2018-02-27T01:41:50.385Z,101793.80
2018-02-27T01:44:18.757Z,101790.38
2018-02-27T01:46:51.463Z,101790.44
2018-02-27T01:49:19.836Z,101788.55
2018-02-27T01:51:48.206Z,101788.11
2018-02-27T01:54:18.053Z,101786.70
2018-02-27T01:56:46.833Z,101781.48
2018-02-27T01:59:15.940Z,101777.66
2018-02-27T02:01:44.258Z,101775.87
2018-02-27T02:04:12.640Z,101782.44
2018-02-27T02:06:40.989Z,101772.91
2018-02-27T02:09:09.360Z,101774.94
2018-02-27T02:11:38.096Z,101773.02
2018-02-27T02:14:06.466Z,101776.20
2018-02-27T02:16:34.797Z,101771.88
2018-02-27T02:19:03.115Z,101775.54
2018-02-27T02:21:31.605Z,101767.90
2018-02-27T02:24:00.083Z,101771.12
2018-02-27T02:26:28.425Z,101764.29
2018-02-27T02:28:56.760Z,101769.12
2018-02-27T02:31:25.906Z,101766.39
2018-02-27T02:33:54.229Z,101756.59
2018-02-27T02:36:23.328Z,101753.88
2018-02-27T02:38:52.446Z,101749.33
2018-02-27T02:41:20.798Z,101749.93
2018-02-27T02:43:49.160Z,101755.70
2018-02-27T02:46:17.535Z,101753.28
2018-02-27T02:48:46.698Z,101748.25
2018-02-27T02:51:15.029Z,101749.92
2018-02-27T02:53:43.436Z,101756.95
2018-02-27T02:56:11.776Z,101756.80
2018-02-27T02:58:40.163Z,101749.16
2018-02-27T03:01:08.569Z,101749.92
2018-02-27T03:03:36.891Z,101749.78
2018-02-27T03:06:05.664Z,101739.50
2018-02-27T03:08:34.000Z,101744.31
2018-02-27T03:11:03.140Z,101741.30
2018-02-27T03:13:31.511Z,101735.31
2018-02-27T03:15:59.848Z,101739.78
2018-02-27T03:18:28.994Z,101734.33
2018-02-27T03:20:57.326Z,101734.19
2018-02-27T03:23:26.117Z,101738.51
2018-02-27T03:25:54.465Z,101733.34
2018-02-27T03:28:23.579Z,101734.28
2018-02-27T03:30:52.720Z,101726.97
2018-02-27T03:33:21.034Z,101724.34
2018-02-27T03:35:49.396Z,101716.56
2018-02-27T03:38:17.722Z,101718.23
2018-02-27T03:40:46.089Z,101715.17
2018-02-27T03:43:15.204Z,101712.88
2018-02-27T03:45:43.570Z,101710.98
2018-02-27T03:48:12.688Z,101703.95
2018-02-27T03:50:41.044Z,101703.78
2018-02-27T03:53:09.420Z,101702.13
2018-02-27T03:55:37.758Z,101700.16
2018-02-27T03:58:06.139Z,101699.80
2018-02-27T04:00:34.454Z,101695.59
2018-02-27T04:03:02.791Z,101696.77
2018-02-27T04:05:31.167Z,101700.23
2018-02-27T04:07:59.546Z,101697.52
2018-02-27T04:10:28.295Z,101699.05
2018-02-27T04:12:57.434Z,101699.26
2018-02-27T04:15:27.275Z,101695.67
2018-02-27T04:17:56.404Z,101698.91
2018-02-27T04:20:24.747Z,101696.95
2018-02-27T04:22:53.837Z,101696.25
2018-02-27T04:25:22.594Z,101696.59
2018-02-27T04:27:50.919Z,101697.86
2018-02-27T04:30:19.238Z,101702.57
2018-02-27T04:32:48.362Z,101698.27
2018-02-27T04:35:17.843Z,101707.22
2018-02-27T04:37:47.733Z,101705.01
2018-02-27T04:40:16.085Z,101706.28
2018-02-27T04:42:44.398Z,101704.71
2018-02-27T04:45:13.575Z,101702.31
2018-02-27T04:47:42.297Z,101705.86
2018-02-27T04:50:10.775Z,101703.92
2018-02-27T04:52:39.515Z,101704.22
2018-02-27T04:55:07.892Z,101709.02
2018-02-27T04:57:36.249Z,101703.55
2018-02-27T05:00:05.383Z,101705.30
2018-02-27T05:02:34.483Z,101697.44
2018-02-27T05:05:02.846Z,101695.23
2018-02-27T05:07:31.252Z,101694.15
2018-02-27T05:09:59.693Z,101689.55
2018-02-27T05:12:28.051Z,101689.86
2018-02-27T05:14:56.784Z,101688.89
2018-02-27T05:17:25.138Z,101685.97
2018-02-27T05:19:53.487Z,101689.53
2018-02-27T05:22:22.259Z,101687.53
2018-02-27T05:24:50.588Z,101690.44
2018-02-27T05:27:19.703Z,101682.84
2018-02-27T05:29:48.843Z,101687.98
2018-02-27T05:32:17.942Z,101694.34
2018-02-27T05:34:46.703Z,101685.51
2018-02-27T05:37:15.070Z,101683.71
2018-02-27T05:39:43.393Z,101685.44
2018-02-27T05:42:12.542Z,101692.40
2018-02-27T05:44:40.900Z,101694.80
2018-02-27T05:47:09.275Z,101696.18
2018-02-27T05:49:38.032Z,101698.35
2018-02-27T05:52:07.173Z,101703.63
2018-02-27T05:54:35.928Z,101709.60
2018-02-27T05:57:04.278Z,101700.28
2018-02-27T05:59:33.062Z,101702.30
2018-02-27T06:02:01.411Z,101700.55
2018-02-27T06:04:29.818Z,101691.95
2018-02-27T06:06:58.155Z,101700.55
2018-02-27T06:09:26.532Z,101704.09
2018-02-27T06:11:54.857Z,101704.58
2018-02-27T06:14:23.185Z,101704.09
2018-02-27T06:16:51.603Z,101698.04
2018-02-27T06:19:19.974Z,101697.44
2018-02-27T06:21:48.355Z,101697.84
2018-02-27T06:24:16.962Z,101699.26
2018-02-27T06:26:45.302Z,101702.40
2018-02-27T06:29:13.677Z,101694.07
2018-02-27T06:31:42.779Z,101699.33
2018-02-27T06:34:11.539Z,101701.48
2018-02-27T06:36:39.899Z,101696.75
2018-02-27T06:39:08.294Z,101694.95
2018-02-27T06:41:36.670Z,101698.12
2018-02-27T06:44:05.087Z,101690.22
2018-02-27T06:46:33.470Z,101698.27
2018-02-27T06:49:01.801Z,101695.48
2018-02-27T06:51:30.810Z,101696.61
2018-02-27T06:54:00.140Z,101697.66
2018-02-27T06:56:28.483Z,101694.53
2018-02-27T06:58:56.842Z,101694.02
2018-02-27T07:01:25.227Z,101700.31
2018-02-27T07:03:54.334Z,101699.19
2018-02-27T07:06:22.717Z,101699.70
2018-02-27T07:08:51.447Z,101702.83
2018-02-27T07:11:20.588Z,101693.62
2018-02-27T07:13:49.842Z,101692.94
2018-02-27T07:16:18.958Z,101693.89
2018-02-27T07:18:48.085Z,101697.41
2018-02-27T07:21:16.854Z,101691.05
2018-02-27T07:23:45.197Z,101692.81
2018-02-27T07:26:13.590Z,101693.26
2018-02-27T07:28:42.711Z,101692.59
2018-02-27T07:31:11.466Z,101691.99
2018-02-27T07:33:40.608Z,101684.89
2018-02-27T07:36:09.018Z,101689.06
2018-02-27T07:38:37.344Z,101684.78
2018-02-27T07:41:06.082Z,101688.45
2018-02-27T07:43:35.212Z,101685.65
2018-02-27T07:46:04.354Z,101684.37
2018-02-27T07:48:33.448Z,101685.01
2018-02-27T07:51:02.242Z,101679.57
2018-02-27T07:53:30.620Z,101676.77
2018-02-27T07:55:58.990Z,101673.28
2018-02-27T07:58:27.846Z,101671.42
2018-02-27T08:00:56.184Z,101667.80
2018-02-27T08:03:24.942Z,101672.03
2018-02-27T08:05:53.314Z,101667.23
2018-02-27T08:08:22.466Z,101666.61
2018-02-27T08:10:51.566Z,101667.41
2018-02-27T08:13:20.718Z,101661.70
2018-02-27T08:15:49.613Z,101663.40
2018-02-27T08:18:17.947Z,101662.64
2018-02-27T08:20:46.272Z,101653.42
2018-02-27T08:23:14.696Z,101659.97
2018-02-27T08:25:43.417Z,101661.30
2018-02-27T08:28:11.782Z,101655.59
2018-02-27T08:30:40.108Z,101662.94
2018-02-27T08:33:08.458Z,101663.67
2018-02-27T08:35:37.225Z,101664.67
2018-02-27T08:38:05.566Z,101658.77
2018-02-27T08:40:34.308Z,101656.71
2018-02-27T08:43:02.705Z,101650.09
2018-02-27T08:45:31.459Z,101657.14
2018-02-27T08:48:00.583Z,101646.50
2018-02-27T08:50:28.985Z,101633.53
2018-02-27T08:52:57.698Z,101654.13
2018-02-27T08:55:26.833Z,101646.87
2018-02-27T08:57:55.182Z,101650.72
2018-02-27T09:00:23.946Z,101646.76
2018-02-27T09:02:53.070Z,101645.64
2018-02-27T09:05:21.440Z,101634.78
2018-02-27T09:07:50.202Z,101634.77
2018-02-27T09:10:18.974Z,101634.86
2018-02-27T09:12:47.298Z,101628.84
2018-02-27T09:15:15.778Z,101629.53
2018-02-27T09:17:44.098Z,101624.09
2018-02-27T09:20:12.461Z,101621.00
2018-02-27T09:22:41.279Z,101625.48
2018-02-27T09:25:10.413Z,101625.34
2018-02-27T09:27:39.135Z,101618.03
2018-02-27T09:30:07.497Z,101619.98
2018-02-27T09:32:35.872Z,101615.84
2018-02-27T09:35:04.241Z,101615.36
2018-02-27T09:37:32.628Z,101618.28
2018-02-27T09:40:00.965Z,101616.74
2018-02-27T09:42:30.077Z,101617.13
2018-02-27T09:44:58.441Z,101615.14
2018-02-27T09:47:26.822Z,101612.02
2018-02-27T09:49:55.600Z,101611.08
2018-02-27T09:52:24.683Z,101615.20
2018-02-27T09:54:53.033Z,101605.50
2018-02-27T09:57:21.407Z,101600.27
2018-02-27T09:59:50.161Z,101607.80
2018-02-27T10:02:19.276Z,101592.09
2018-02-27T10:04:47.647Z,101594.12
2018-02-27T10:07:15.979Z,101591.41
2018-02-27T10:09:44.349Z,101583.43
2018-02-27T10:12:12.767Z,101593.39
2018-02-27T10:14:41.134Z,101595.20
2018-02-27T10:17:09.907Z,101594.31
2018-02-27T10:19:39.052Z,101589.22
2018-02-27T10:22:07.408Z,101590.08
2018-02-27T10:24:35.785Z,101580.69
2018-02-27T10:27:04.943Z,101583.23
2018-02-27T10:29:33.868Z,101583.58
2018-02-27T10:32:02.268Z,101587.25
2018-02-27T10:34:30.652Z,101581.38
2018-02-27T10:36:59.381Z,101578.30
2018-02-27T10:39:27.824Z,101581.00
2018-02-27T10:41:56.144Z,101576.50
2018-02-27T10:44:25.375Z,101580.56
2018-02-27T10:46:53.683Z,101583.62
2018-02-27T10:49:22.798Z,101577.77
2018-02-27T10:51:51.144Z,101579.55
2018-02-27T10:54:20.278Z,101566.02
2018-02-27T10:56:49.403Z,101569.15
2018-02-27T10:59:17.797Z,101581.46
2018-02-27T11:01:46.196Z,101561.80
2018-02-27T11:04:14.619Z,101566.16
2018-02-27T11:06:42.972Z,101558.75
2018-02-27T11:09:11.396Z,101560.86
2018-02-27T11:11:39.758Z,101561.56
2018-02-27T11:14:08.106Z,101558.94
2018-02-27T11:16:36.888Z,101551.69
2018-02-27T11:19:05.233Z,101553.98
2018-02-27T11:21:33.616Z,101545.41
2018-02-27T11:24:02.718Z,101531.24
2018-02-27T11:26:31.844Z,101543.89
2018-02-27T11:29:00.186Z,101547.81
2018-02-27T11:31:28.534Z,101546.22
2018-02-27T11:33:57.659Z,101540.70
2018-02-27T11:36:26.082Z,101542.25
2018-02-27T11:38:54.415Z,101538.68
2018-02-27T11:41:22.786Z,101541.42
2018-02-27T11:43:51.940Z,101535.91
2018-02-27T11:46:20.687Z,101533.88
2018-02-27T11:48:49.052Z,101543.25
2018-02-27T11:51:17.409Z,101534.89
2018-02-27T11:53:45.803Z,101531.38
2018-02-27T11:56:14.144Z,101528.67
2018-02-27T11:58:42.460Z,101535.88
2018-02-27T12:01:10.831Z,101529.38
2018-02-27T12:03:39.228Z,101524.67
2018-02-27T12:06:08.350Z,101529.92
2018-02-27T12:08:36.726Z,101514.22
2018-02-27T12:11:05.091Z,101517.92
2018-02-27T12:13:33.460Z,101510.70
2018-02-27T12:16:01.820Z,101513.23
2018-02-27T12:18:31.513Z,101509.09
2018-02-27T12:20:59.906Z,101509.39
2018-02-27T12:23:28.295Z,101505.01
2018-02-27T12:25:57.059Z,101505.59
2018-02-27T12:28:25.428Z,101503.48
2018-02-27T12:30:53.807Z,101504.95
2018-02-27T12:33:22.158Z,101509.02
2018-02-27T12:35:51.319Z,101503.77
2018-02-27T12:38:19.685Z,101516.95
2018-02-27T12:40:48.455Z,101507.05
2018-02-27T12:43:17.155Z,101501.36
2018-02-27T12:45:45.595Z,101506.38
2018-02-27T12:48:14.729Z,101512.67
2018-02-27T12:50:43.092Z,101510.16
2018-02-27T12:53:11.439Z,101496.70
2018-02-27T12:55:40.567Z,101498.63
2018-02-27T12:58:08.929Z,101491.72
2018-02-27T13:00:38.080Z,101496.31
2018-02-27T13:03:06.405Z,101487.84
2018-02-27T13:05:35.525Z,101489.23
2018-02-27T13:08:03.877Z,101484.75
2018-02-27T13:10:33.032Z,101485.61
2018-02-27T13:13:01.389Z,101491.77
2018-02-27T13:15:29.751Z,101485.70
2018-02-27T13:17:58.495Z,101486.61
2018-02-27T13:20:26.849Z,101473.58
2018-02-27T13:22:55.281Z,101480.27
2018-02-27T13:25:25.290Z,101475.59
2018-02-27T13:27:54.439Z,101471.66
2018-02-27T13:30:22.821Z,101469.64
2018-02-27T13:32:51.142Z,101465.27
2018-02-27T13:35:20.287Z,101463.91
2018-02-27T13:37:48.623Z,101460.73
2018-02-27T13:40:17.003Z,101462.58
2018-02-27T13:42:45.345Z,101464.58
2018-02-27T13:45:13.720Z,101457.37
2018-02-27T13:47:42.059Z,101461.65
2018-02-27T13:50:10.430Z,101456.02
2018-02-27T13:52:38.774Z,101475.00
2018-02-27T13:55:07.922Z,101473.13
2018-02-27T13:57:36.260Z,101480.70
2018-02-27T14:00:04.635Z,101474.00
2018-02-27T14:02:32.987Z,101467.09
2018-02-27T14:05:01.359Z,101457.53
2018-02-27T14:07:30.121Z,101452.00
2018-02-27T14:09:58.942Z,101457.56
2018-02-27T14:12:27.698Z,101457.59
2018-02-27T14:14:56.017Z,101469.53
2018-02-27T14:17:24.392Z,101463.67
2018-02-27T14:19:52.804Z,101455.73
2018-02-27T14:22:21.540Z,101463.32
2018-02-27T14:24:49.908Z,101463.12
2018-02-27T14:27:18.274Z,101467.55
2018-02-27T14:29:47.031Z,101461.47
2018-02-27T14:32:15.410Z,101460.83
2018-02-27T14:34:44.126Z,101467.30
2018-02-27T14:37:12.450Z,101467.14
2018-02-27T14:39:40.848Z,101465.85
2018-02-27T14:42:09.198Z,101458.16
2018-02-27T14:44:38.349Z,101467.11
2018-02-27T14:47:06.731Z,101465.55
2018-02-27T14:49:36.202Z,101470.41
2018-02-27T14:52:05.762Z,101466.93
2018-02-27T14:54:34.143Z,101473.01
2018-02-27T14:57:02.571Z,101476.69
2018-02-27T14:59:30.872Z,101481.30
2018-02-27T15:01:59.239Z,101473.56
2018-02-27T15:04:27.554Z,101471.11
2018-02-27T15:06:56.749Z,101476.47
2018-02-27T15:09:25.100Z,101476.41
2018-02-27T15:11:53.490Z,101484.73
2018-02-27T15:14:22.833Z,101488.22
2018-02-27T15:16:51.977Z,101488.34
2018-02-27T15:19:20.546Z,101478.69
2018-02-27T15:21:49.298Z,101479.58
2018-02-27T15:24:19.822Z,101483.91
2018-02-27T15:26:49.575Z,101477.62
2018-02-27T15:29:17.970Z,101477.46
2018-02-27T15:31:46.718Z,101481.46
2018-02-27T15:34:16.228Z,101475.45
2018-02-27T15:36:44.609Z,101486.19
2018-02-27T15:39:13.370Z,101485.28
2018-02-27T15:41:42.865Z,101488.45
2018-02-27T15:44:12.785Z,101489.80
2018-02-27T15:46:41.559Z,101493.77
2018-02-27T15:49:09.934Z,101488.86
2018-02-27T15:51:38.298Z,101490.25
2018-02-27T15:54:06.686Z,101492.65
2018-02-27T15:56:35.818Z,101489.08
2018-02-27T15:59:04.602Z,101496.64
2018-02-27T16:01:33.356Z,101487.16
2018-02-27T16:04:02.570Z,101491.66
2018-02-27T16:06:30.919Z,101493.44
2018-02-27T16:09:03.300Z,101498.52
2018-02-27T16:11:32.429Z,101499.60
2018-02-27T16:14:01.554Z,101499.84
2018-02-27T16:16:31.207Z,101512.80
2018-02-27T16:19:00.722Z,101513.36
2018-02-27T16:21:29.895Z,101514.77
2018-02-27T16:23:58.246Z,101513.22
2018-02-27T16:26:26.981Z,101519.39
2018-02-27T16:28:56.145Z,101520.06
2018-02-27T16:31:24.905Z,101521.52
2018-02-27T16:33:53.281Z,101528.63
2018-02-27T16:36:22.418Z,101519.60
2018-02-27T16:38:51.182Z,101524.53
2018-02-27T16:41:20.293Z,101528.05
2018-02-27T16:43:48.934Z,101534.91
2018-02-27T16:46:17.309Z,101538.69
2018-02-27T16:48:45.697Z,101543.84
2018-02-27T16:51:14.039Z,101543.25
2018-02-27T16:53:47.929Z,101558.96
2018-02-27T16:56:16.308Z,101555.94
2018-02-27T16:58:45.043Z,101560.20
2018-02-27T17:01:13.757Z,101557.76
2018-02-27T17:03:42.487Z,101561.05
2018-02-27T17:06:10.834Z,101566.14
2018-02-27T17:08:39.241Z,101564.69
2018-02-27T17:11:08.106Z,101567.46
2018-02-27T17:13:37.121Z,101569.00
2018-02-27T17:16:13.690Z,101572.02
2018-02-27T17:18:42.861Z,101574.55
2018-02-27T17:21:17.194Z,101577.50
2018-02-27T17:23:46.374Z,101577.60
2018-02-27T17:26:15.554Z,101576.86
2018-02-27T17:28:44.105Z,101581.97
2018-02-27T17:31:12.491Z,101578.11
2018-02-27T17:33:41.651Z,101580.34
2018-02-27T17:36:11.631Z,101584.51
2018-02-27T17:38:40.367Z,101588.22
2018-02-27T17:41:10.250Z,101589.99
2018-02-27T17:43:38.585Z,101593.02
2018-02-27T17:46:07.685Z,101592.67
2018-02-27T17:48:36.202Z,101591.04
2018-02-27T17:51:05.269Z,101593.22
2018-02-27T17:53:33.647Z,101584.63
2018-02-27T17:56:01.966Z,101590.50
2018-02-27T17:58:31.065Z,101590.80
2018-02-27T18:00:59.442Z,101594.55
2018-02-27T18:03:27.817Z,101599.06
2018-02-27T18:05:56.949Z,101601.84
2018-02-27T18:08:25.501Z,101574.53
2018-02-27T18:10:54.272Z,101589.14
2018-02-27T18:13:22.657Z,101585.73
2018-02-27T18:15:51.045Z,101593.23
2018-02-27T18:18:19.365Z,101590.69
2018-02-27T18:20:48.121Z,101584.44
2018-02-27T18:23:16.511Z,101592.84
2018-02-27T18:25:44.850Z,101588.77
2018-02-27T18:28:13.214Z,101589.90
2018-02-27T18:30:41.598Z,101589.11
2018-02-27T18:33:10.328Z,101584.36
2018-02-27T18:35:39.490Z,101591.58
2018-02-27T18:38:08.251Z,101595.23
2018-02-27T18:40:36.585Z,101603.09
2018-02-27T18:43:04.945Z,101603.16
2018-02-27T18:45:33.283Z,101598.86
2018-02-27T18:48:01.658Z,101603.67
2018-02-27T18:50:30.375Z,101617.56
2018-02-27T18:52:58.908Z,101610.02
2018-02-27T18:55:27.247Z,101623.90
2018-02-27T18:57:55.626Z,101621.27
2018-02-27T19:00:24.013Z,101615.29
2018-02-27T19:02:52.389Z,101623.23
2018-02-27T19:05:21.188Z,101627.72
2018-02-27T19:07:49.533Z,101618.48
2018-02-27T19:10:17.892Z,101631.68
2018-02-27T19:12:46.207Z,101628.05
2018-02-27T19:15:14.594Z,101628.09
2018-02-27T19:17:42.960Z,101629.72
2018-02-27T19:20:11.337Z,101631.84
2018-02-27T19:22:40.492Z,101634.68
2018-02-27T19:25:09.602Z,101639.27
2018-02-27T19:27:37.943Z,101636.07
2018-02-27T19:30:07.045Z,101638.87
2018-02-27T19:32:35.413Z,101636.75
2018-02-27T19:35:04.502Z,101586.37
2018-02-27T19:37:33.646Z,101645.07
2018-02-27T19:40:02.898Z,101636.12
2018-02-27T19:42:32.013Z,101642.48
2018-02-27T19:45:00.342Z,101649.06
2018-02-27T19:47:28.734Z,101655.80
2018-02-27T19:49:57.826Z,101655.69
2018-02-27T19:52:26.557Z,101661.73
2018-02-27T19:54:54.909Z,101663.56
2018-02-27T19:57:24.599Z,101667.17
2018-02-27T19:59:53.349Z,101662.78
2018-02-27T20:02:21.697Z,101665.95
2018-02-27T20:04:50.481Z,101668.38
2018-02-27T20:07:19.569Z,101676.34
2018-02-27T20:09:47.982Z,101674.16
2018-02-27T20:12:16.743Z,101681.31
2018-02-27T20:14:45.887Z,101684.48
2018-02-27T20:17:14.636Z,101683.72
2018-02-27T20:19:43.754Z,101694.34
2018-02-27T20:22:12.132Z,101688.75
2018-02-27T20:24:40.509Z,101692.00
2018-02-27T20:27:09.635Z,101689.22
2018-02-27T20:29:37.955Z,101694.28
2018-02-27T20:32:07.053Z,101695.72
2018-02-27T20:34:35.420Z,101699.13
2018-02-27T20:37:04.548Z,101696.03
2018-02-27T20:39:32.903Z,101702.73
2018-02-27T20:42:02.037Z,101701.78
2018-02-27T20:44:30.457Z,101707.30
2018-02-27T20:46:58.824Z,101701.84
2018-02-27T20:49:27.178Z,101708.47
2018-02-27T20:51:56.399Z,101717.84
2018-02-27T20:54:26.080Z,101715.63
2018-02-27T20:56:55.622Z,101717.93
2018-02-27T20:59:23.981Z,101723.94
2018-02-27T21:01:52.359Z,101712.86
2018-02-27T21:04:21.084Z,101723.69
2018-02-27T21:06:49.472Z,101718.17
2018-02-27T21:09:17.804Z,101720.69
2018-02-27T21:11:46.150Z,101722.71
2018-02-27T21:14:14.527Z,101723.61
2018-02-27T21:16:43.256Z,101731.68
2018-02-27T21:19:11.602Z,101723.80
2018-02-27T21:21:39.987Z,101728.87
2018-02-27T21:24:08.711Z,101725.09
2018-02-27T21:26:37.840Z,101733.03
2018-02-27T21:29:06.219Z,101739.34
2018-02-27T21:31:35.341Z,101742.56
2018-02-27T21:34:03.697Z,101740.45
2018-02-27T21:36:32.467Z,101742.35
2018-02-27T21:39:00.794Z,101741.39
2018-02-27T21:41:30.668Z,101744.19
2018-02-27T21:43:59.037Z,101744.64
2018-02-27T21:46:27.463Z,101746.43
2018-02-27T21:48:55.823Z,101751.56
2018-02-27T21:51:24.175Z,101754.22
2018-02-27T21:53:53.315Z,101745.32
2018-02-27T21:56:21.663Z,101745.61
2018-02-27T21:58:50.052Z,101754.57
2018-02-27T22:01:18.822Z,101752.41
2018-02-27T22:03:48.837Z,101753.52
2018-02-27T22:06:17.215Z,101756.08
2018-02-27T22:08:45.594Z,101757.04
2018-02-27T22:11:13.956Z,101755.66
2018-02-27T22:13:42.294Z,101755.25
2018-02-27T22:16:11.467Z,101757.48
2018-02-27T22:18:39.801Z,101757.67
2018-02-27T22:21:08.181Z,101759.24
2018-02-27T22:23:36.535Z,101756.55
2018-02-27T22:26:05.677Z,101754.28
2018-02-27T22:28:34.475Z,101761.43
2018-02-27T22:31:02.809Z,101759.26
2018-02-27T22:33:31.158Z,101765.82
2018-02-27T22:35:59.535Z,101758.46
2018-02-27T22:38:29.443Z,101761.41
2018-02-27T22:40:59.295Z,101761.50
2018-02-27T22:43:27.738Z,101762.17
2018-02-27T22:45:56.061Z,101768.34
2018-02-27T22:48:24.418Z,101770.53
2018-02-27T22:50:53.140Z,101771.92
2018-02-27T22:53:21.534Z,101767.00
2018-02-27T22:55:49.871Z,101772.52
2018-02-27T22:58:19.040Z,101769.00
2018-02-27T23:00:48.183Z,101764.02
2018-02-27T23:03:16.527Z,101774.58
2018-02-27T23:05:44.846Z,101762.89
2018-02-27T23:08:13.212Z,101762.37
2018-02-27T23:10:41.603Z,101761.71
2018-02-27T23:13:10.741Z,101769.37
2018-02-27T23:15:39.077Z,101767.47
2018-02-27T23:18:07.417Z,101771.55
2018-02-27T23:20:36.580Z,101765.81
2018-02-27T23:23:04.993Z,101766.66
2018-02-27T23:25:44.846Z,101773.34
2018-02-27T23:28:16.143Z,101771.44
2018-02-27T23:30:45.829Z,101775.73
2018-02-27T23:33:20.407Z,101777.17
2018-02-27T23:35:49.174Z,101779.35
2018-02-27T23:38:17.918Z,101783.33
2018-02-27T23:40:46.298Z,101783.72
2018-02-27T23:43:14.638Z,101784.55
2018-02-27T23:45:43.021Z,101789.27
2018-02-27T23:48:12.501Z,101785.11
2018-02-27T23:50:40.846Z,101785.95
2018-02-27T23:53:09.979Z,101784.41
2018-02-27T23:55:39.818Z,101791.28
2018-02-27T23:58:08.962Z,101788.49
